createdAt,value
2019-01-17T00:00:12.532Z,21.17
2019-01-17T00:03:11.202Z,23.22
2019-01-17T00:06:11.028Z,18.75
2019-01-17T00:08:56.446Z,19.55
2019-01-17T00:11:52.335Z,21.85
2019-01-17T00:14:51.617Z,18.50
2019-01-17T00:17:50.466Z,13.30
2019-01-17T00:20:37.443Z,13.48
2019-01-17T00:23:24.350Z,9.58
2019-01-17T00:26:12.093Z,11.53
2019-01-17T00:29:06.143Z,7.33
2019-01-17T00:31:44.569Z,7.17
2019-01-17T00:34:39.395Z,7.87
2019-01-17T00:37:24.769Z,3.42
2019-01-17T00:40:11.649Z,2.05
2019-01-17T00:42:56.203Z,2.25
2019-01-17T00:45:41.711Z,3.77
2019-01-17T00:48:34.751Z,2.30
2019-01-17T00:51:20.539Z,2.50
2019-01-17T00:54:12.038Z,5.72
2019-01-17T00:56:55.657Z,1.25
2019-01-17T00:59:41.029Z,3.50
2019-01-17T01:02:44.365Z,3.58
2019-01-17T01:05:31.685Z,4.20
2019-01-17T01:08:33.477Z,1.80
2019-01-17T01:11:23.958Z,2.60
2019-01-17T01:14:28.827Z,5.97
2019-01-17T01:17:27.330Z,2.33
2019-01-17T01:20:14.014Z,1.70
2019-01-17T01:22:52.239Z,1.85
2019-01-17T01:25:39.173Z,9.33
2019-01-17T01:28:37.846Z,3.00
2019-01-17T01:31:27.673Z,4.80
2019-01-17T01:34:20.174Z,5.05
2019-01-17T01:37:13.874Z,5.80
2019-01-17T01:40:03.339Z,7.25
2019-01-17T01:42:48.689Z,7.47
2019-01-17T01:45:34.479Z,5.92
2019-01-17T01:48:26.517Z,6.15
2019-01-17T01:51:12.122Z,7.92
2019-01-17T01:53:40.003Z,6.17
2019-01-17T01:56:07.061Z,6.53
2019-01-17T01:58:34.254Z,7.80
2019-01-17T02:01:01.440Z,6.90
2019-01-17T02:03:28.558Z,7.53
2019-01-17T02:05:55.616Z,4.92
2019-01-17T02:08:28.868Z,7.50
2019-01-17T02:10:56.294Z,5.08
2019-01-17T02:13:25.202Z,8.48
2019-01-17T02:15:52.642Z,3.47
2019-01-17T02:18:20.035Z,8.85
2019-01-17T02:20:47.448Z,3.65
2019-01-17T02:23:14.907Z,7.07
2019-01-17T02:25:43.297Z,7.10
2019-01-17T02:28:10.905Z,3.62
2019-01-17T02:30:38.001Z,6.08
2019-01-17T02:33:05.451Z,5.92
2019-01-17T02:35:33.831Z,6.03
2019-01-17T02:38:01.291Z,7.92
2019-01-17T02:40:29.384Z,6.00
2019-01-17T02:42:56.834Z,5.35
2019-01-17T02:45:24.402Z,4.53
2019-01-17T02:47:51.730Z,4.95
2019-01-17T02:50:20.200Z,10.65
2019-01-17T02:52:47.254Z,4.10
2019-01-17T02:55:15.125Z,7.97
2019-01-17T02:57:44.318Z,5.45
2019-01-17T03:00:15.768Z,6.95
2019-01-17T03:02:43.123Z,9.83
2019-01-17T03:05:12.119Z,4.28
2019-01-17T03:07:39.224Z,7.78
2019-01-17T03:10:10.408Z,6.90
2019-01-17T03:12:37.762Z,4.90
2019-01-17T03:15:06.906Z,4.95
2019-01-17T03:17:34.315Z,1.80
2019-01-17T03:20:01.508Z,3.27
2019-01-17T03:22:28.543Z,5.00
2019-01-17T03:24:56.069Z,6.17
2019-01-17T03:27:23.729Z,6.70
2019-01-17T03:29:51.089Z,7.10
2019-01-17T03:32:18.749Z,7.15
2019-01-17T03:34:45.918Z,5.45
2019-01-17T03:37:13.083Z,7.25
2019-01-17T03:39:40.247Z,7.15
2019-01-17T03:42:08.896Z,8.15
2019-01-17T03:44:36.343Z,7.17
2019-01-17T03:47:04.107Z,18.07
2019-01-17T03:49:34.015Z,12.30
2019-01-17T03:52:01.784Z,10.95
2019-01-17T03:54:33.435Z,5.53
2019-01-17T03:57:00.796Z,10.18
2019-01-17T03:59:28.177Z,4.83
2019-01-17T04:01:55.294Z,11.03
2019-01-17T04:04:22.378Z,10.03
2019-01-17T04:06:49.501Z,12.53
2019-01-17T04:09:16.845Z,3.52
2019-01-17T04:11:44.606Z,7.62
2019-01-17T04:14:11.671Z,6.50
2019-01-17T04:16:38.783Z,6.97
2019-01-17T04:19:05.892Z,13.58
2019-01-17T04:21:33.614Z,1.90
2019-01-17T04:24:02.199Z,3.55
2019-01-17T04:26:29.554Z,4.65
2019-01-17T04:28:58.039Z,6.67
2019-01-17T04:31:25.114Z,9.03
2019-01-17T04:33:52.226Z,2.83
2019-01-17T04:36:19.291Z,3.62
2019-01-17T04:38:46.390Z,7.12
2019-01-17T04:41:14.119Z,7.17
2019-01-17T04:43:41.578Z,2.83
2019-01-17T04:46:09.006Z,2.35
2019-01-17T04:48:37.727Z,9.73
2019-01-17T04:51:04.785Z,5.05
2019-01-17T04:53:32.197Z,5.35
2019-01-17T04:56:00.679Z,7.92
2019-01-17T04:58:28.440Z,14.50
2019-01-17T05:00:55.856Z,10.50
2019-01-17T05:03:24.539Z,6.35
2019-01-17T05:05:51.615Z,9.40
2019-01-17T05:08:19.086Z,12.35
2019-01-17T05:10:46.245Z,8.53
2019-01-17T05:13:15.436Z,6.75
2019-01-17T05:15:44.629Z,9.10
2019-01-17T05:18:11.850Z,7.35
2019-01-17T05:20:40.735Z,9.80
2019-01-17T05:23:08.429Z,10.85
2019-01-17T05:25:36.193Z,6.33
2019-01-17T05:28:03.648Z,11.80
2019-01-17T05:30:30.733Z,11.28
2019-01-17T05:32:59.286Z,12.58
2019-01-17T05:35:26.641Z,9.80
2019-01-17T05:37:54.095Z,2.42
2019-01-17T05:40:21.451Z,7.00
2019-01-17T05:42:48.527Z,8.30
2019-01-17T05:45:16.024Z,11.55
2019-01-17T05:47:43.096Z,5.90
2019-01-17T05:50:11.683Z,11.80
2019-01-17T05:52:38.770Z,12.28
2019-01-17T05:55:06.124Z,12.78
2019-01-17T05:57:33.221Z,11.28
2019-01-17T06:00:01.767Z,11.48
2019-01-17T06:02:28.982Z,8.85
2019-01-17T06:04:56.731Z,9.98
2019-01-17T06:07:23.938Z,15.88
2019-01-17T06:09:52.655Z,10.38
2019-01-17T06:12:20.127Z,11.88
2019-01-17T06:14:47.587Z,17.90
2019-01-17T06:17:16.886Z,14.80
2019-01-17T06:19:44.344Z,10.10
2019-01-17T06:22:11.798Z,9.98
2019-01-17T06:24:39.998Z,13.08
2019-01-17T06:27:07.413Z,15.83
2019-01-17T06:29:34.517Z,11.97
2019-01-17T06:32:01.934Z,13.55
2019-01-17T06:34:29.291Z,10.05
2019-01-17T06:36:56.946Z,11.10
2019-01-17T06:39:24.468Z,14.63
2019-01-17T06:41:51.543Z,9.33
2019-01-17T06:44:20.513Z,9.08
2019-01-17T06:46:51.114Z,11.53
2019-01-17T06:49:18.944Z,14.58
2019-01-17T06:51:46.295Z,23.52
2019-01-17T06:54:13.445Z,13.80
2019-01-17T06:56:41.314Z,14.25
2019-01-17T06:59:09.743Z,19.07
2019-01-17T07:01:37.250Z,19.00
2019-01-17T07:04:05.736Z,24.52
2019-01-17T07:06:33.218Z,11.78
2019-01-17T07:09:01.719Z,14.65
2019-01-17T07:11:30.689Z,20.60
2019-01-17T07:13:58.540Z,17.67
2019-01-17T07:16:25.945Z,15.60
2019-01-17T07:18:54.781Z,15.08
2019-01-17T07:21:24.657Z,16.05
2019-01-17T07:23:52.170Z,16.48
2019-01-17T07:26:19.283Z,9.18
2019-01-17T07:28:47.782Z,25.55
2019-01-17T07:31:15.232Z,14.23
2019-01-17T07:33:42.307Z,9.23
2019-01-17T07:36:10.455Z,16.40
2019-01-17T07:38:38.850Z,15.55
2019-01-17T07:41:07.727Z,17.45
2019-01-17T07:43:34.813Z,13.88
2019-01-17T07:46:01.946Z,17.07
2019-01-17T07:48:29.681Z,18.05
2019-01-17T07:50:57.038Z,13.48
2019-01-17T07:53:25.205Z,13.05
2019-01-17T07:55:55.110Z,17.02
2019-01-17T07:58:22.224Z,12.85
2019-01-17T08:00:49.312Z,12.18
2019-01-17T08:03:16.402Z,15.70
2019-01-17T08:05:45.667Z,13.28
2019-01-17T08:08:14.575Z,14.28
2019-01-17T08:10:43.450Z,18.77
2019-01-17T08:13:10.514Z,15.72
2019-01-17T08:15:37.955Z,19.20
2019-01-17T08:18:05.307Z,17.75
2019-01-17T08:20:32.658Z,21.30
2019-01-17T08:22:59.870Z,14.13
2019-01-17T08:25:27.367Z,18.20
2019-01-17T08:27:55.851Z,11.70
2019-01-17T08:30:25.407Z,10.75
2019-01-17T08:32:53.119Z,12.80
2019-01-17T08:35:20.676Z,18.48
2019-01-17T08:37:47.726Z,18.37
2019-01-17T08:40:20.655Z,16.90
2019-01-17T08:42:47.716Z,19.42
2019-01-17T08:45:14.819Z,20.17
2019-01-17T08:47:43.122Z,14.60
2019-01-17T08:50:11.970Z,17.23
2019-01-17T08:52:39.065Z,14.70
2019-01-17T08:55:06.386Z,11.78
2019-01-17T08:57:35.367Z,25.57
2019-01-17T09:00:05.303Z,15.25
2019-01-17T09:02:34.126Z,11.48
2019-01-17T09:05:01.523Z,15.55
2019-01-17T09:07:30.431Z,10.18
2019-01-17T09:09:57.636Z,16.12
2019-01-17T09:12:25.433Z,13.78
2019-01-17T09:14:52.783Z,8.65
2019-01-17T09:17:20.242Z,12.90
2019-01-17T09:19:47.597Z,10.93
2019-01-17T09:22:15.358Z,8.68
2019-01-17T09:24:42.561Z,13.00
2019-01-17T09:27:10.843Z,12.43
2019-01-17T09:29:39.023Z,19.70
2019-01-17T09:32:07.195Z,13.53
2019-01-17T09:34:34.299Z,8.88
2019-01-17T09:37:01.367Z,7.87
2019-01-17T09:39:28.572Z,9.23
2019-01-17T09:41:57.451Z,14.07
2019-01-17T09:44:24.574Z,11.38
2019-01-17T09:46:52.694Z,13.72
2019-01-17T09:49:19.794Z,21.95
2019-01-17T09:51:47.904Z,18.12
2019-01-17T09:54:15.778Z,11.38
2019-01-17T09:56:43.952Z,12.25
2019-01-17T09:59:12.880Z,18.37
2019-01-17T10:01:41.355Z,16.37
2019-01-17T10:04:08.427Z,17.37
2019-01-17T10:06:35.535Z,16.27
2019-01-17T10:09:04.407Z,17.20
2019-01-17T10:11:31.979Z,10.30
2019-01-17T10:13:59.156Z,16.93
2019-01-17T10:16:35.626Z,19.87
2019-01-17T10:19:53.716Z,17.32
2019-01-17T10:22:57.030Z,14.47
2019-01-17T10:25:59.946Z,15.63
2019-01-17T10:29:13.874Z,10.68
2019-01-17T10:32:21.641Z,14.87
2019-01-17T10:35:25.986Z,14.75
2019-01-17T10:38:24.380Z,20.30
